Flight Track Log - Related Links

Times and Time Zones

All times are in EDT time to prevent confusion due to time zone crossing. See the N5329F flight status page for this flight to view local times or setup timezone preferences in your user account.

Time Position Orientation Groundspeed Altitude Reporting Facility
EDT Latitude Longitude Course Direction KTS MPH feet Rate Location/Type
Wed 03:02:50 PM 33.0456 -96.6583 56° Northeast 166 191 2,400  Level FAA TRACON SMA TRACON (SMA)
Wed 03:03:30 PM 33.0617 -96.6297 56° Northeast 169 194 2,400  Level FAA TRACON SMA TRACON (SMA)
Wed 03:04:10 PM 33.0797 -96.5972 56° Northeast 170 196 2,400  Level FAA TRACON SMA TRACON (SMA)
Wed 03:04:50 PM 33.0978 -96.5647 54° Northeast 171 197 2,400  Level FAA TRACON SMA TRACON (SMA)
Wed 03:05:30 PM 33.1150 -96.5361 59° Northeast 172 198 2,400  Level FAA TRACON SMA TRACON (SMA)
Wed 03:06:13 PM 33.1336 -96.4986 53° Northeast 171 197 2,400  Level FAA TRACON SMA TRACON (SMA)
Wed 03:06:51 PM 33.1514 -96.4703 57° Northeast 172 198 2,400 385 Level FAA TRACON SMA TRACON (SMA)
Wed 03:07:31 PM 33.1667 -96.4419 57° Northeast 166 191 2,900 825 Climbing FAA TRACON SMA TRACON (SMA)
Wed 03:08:11 PM 33.1833 -96.4114 55° Northeast 156 180 3,500 825 Climbing FAA TRACON SMA TRACON (SMA)
Wed 03:08:51 PM 33.2003 -96.3825 59° Northeast 153 176 4,000 600 Climbing FAA TRACON SMA TRACON (SMA)
Wed 03:09:31 PM 33.2142 -96.3550 57° Northeast 157 181 4,300 600 Climbing FAA TRACON SMA TRACON (SMA)
Wed 03:10:11 PM 33.2308 -96.3247 56° Northeast 158 182 4,800 675 Climbing FAA TRACON SMA TRACON (SMA)
Wed 03:10:51 PM 33.2481 -96.2942 59° Northeast 160 184 5,200 525 Climbing FAA TRACON SMA TRACON (SMA)
Wed 03:11:31 PM 33.2628 -96.2653 54° Northeast 163 188 5,500 525 Climbing FAA TRACON SMA TRACON (SMA)
Wed 03:12:11 PM 33.2814 -96.2342 58° Northeast 167 192 5,900 600 Climbing FAA TRACON SMA TRACON (SMA)
Wed 03:12:51 PM 33.2983 -96.2017 61° Northeast 166 191 6,300 525 Climbing FAA TRACON SMA TRACON (SMA)
Wed 03:13:31 PM 33.3103 -96.1756 56° Northeast 168 193 6,600 525 Climbing FAA TRACON SMA TRACON (SMA)
Wed 03:14:11 PM 33.3306 -96.1392 51° Northeast 171 197 7,000 525 Climbing FAA TRACON SMA TRACON (SMA)
Wed 03:14:51 PM 33.3514 -96.1081 55° Northeast 173 199 7,300 450 Climbing FAA TRACON SMA TRACON (SMA)
Wed 03:15:31 PM 33.3686 -96.0781 55° Northeast 178 205 7,600 532 Climbing FAA TRACON SMA TRACON (SMA)
Wed 03:16:10 PM 33.3878 -96.0447 58° Northeast 176 203 8,000 532 Climbing FAA TRACON SMA TRACON (SMA)
Wed 03:16:50 PM 33.4058 -96.0106 69° East 176 203 8,300 611 Climbing FAA TRACON SMA TRACON (SMA)
Wed 03:17:58 PM 33.4239 -95.9550 55° Northeast 164 189 9,100 609 Climbing Fort Worth Center
Wed 03:18:58 PM 33.4506 -95.9097 57° Northeast 164 189 9,600 550 Climbing Fort Worth Center
Wed 03:19:58 PM 33.4792 -95.8569 59° Northeast 164 189 10,200 550 Climbing Fort Worth Center
Wed 03:20:58 PM 33.5017 -95.8117 54° Northeast 164 189 10,700 550 Climbing Fort Worth Center
Wed 03:21:58 PM 33.5322 -95.7614 58° Northeast 164 189 11,300 550 Climbing Fort Worth Center
Wed 03:22:58 PM 33.5586 -95.7108 61° Northeast 169 194 11,800 450 Climbing Fort Worth Center
Wed 03:23:58 PM 33.5831 -95.6581 54° Northeast 174 200 12,200 446 Climbing Fort Worth Center
Wed 03:24:59 PM 33.6117 -95.6103 66° East 174 200 12,700 450 Climbing Fort Worth Center
Wed 03:25:58 PM 33.6297 -95.5625 54° Northeast 169 194 13,100 403 Climbing Fort Worth Center
Wed 03:26:58 PM 33.6603 -95.5119 60° Northeast 169 194 13,500 450 Climbing Fort Worth Center
Wed 03:27:58 PM 33.6844 -95.4614 59° Northeast 169 194 14,000 500 Climbing Fort Worth Center
Wed 03:28:58 PM 33.7108 -95.4083 61° Northeast 169 194 14,500 450 Climbing Fort Worth Center
Wed 03:29:58 PM 33.7369 -95.3528 53° Northeast 176 203 14,900 450 Climbing Fort Worth Center
Wed 03:30:58 PM 33.7717 -95.2969 56° Northeast 189 217 15,400 300 Climbing Fort Worth Center
Wed 03:31:58 PM 33.8019 -95.2439 60° Northeast 194 223 15,500 50 Climbing Fort Worth Center
Wed 03:32:58 PM 33.8303 -95.1856 58° Northeast 189 217 15,500  Level Fort Worth Center
Wed 03:33:59 PM 33.8606 -95.1272 57° Northeast 189 217 15,500  Level Fort Worth Center
Wed 03:34:58 PM 33.8908 -95.0714 56° Northeast 189 217 15,500  Level Fort Worth Center
Wed 03:35:58 PM 33.9231 -95.0131 60° Northeast 194 223 15,500  Level Fort Worth Center
Wed 03:36:58 PM 33.9511 -94.9547 55° Northeast 194 223 15,500  Level Fort Worth Center
Wed 03:37:58 PM 33.9833 -94.8986 60° Northeast 189 217 15,500  Level Fort Worth Center
Wed 03:38:58 PM 34.0114 -94.8403 57° Northeast 189 217 15,500 50 Level Fort Worth Center
Wed 03:39:58 PM 34.0414 -94.7842 57° Northeast 189 217 15,600 50 Climbing Fort Worth Center
Wed 03:40:58 PM 34.0717 -94.7281 58° Northeast 189 217 15,600  Level Fort Worth Center
Wed 03:41:58 PM 34.1017 -94.6694 57° Northeast 189 217 15,600  Level Fort Worth Center
Wed 03:42:58 PM 34.1317 -94.6133 59° Northeast 189 217 15,600  Level Fort Worth Center
Wed 03:43:58 PM 34.1597 -94.5572 58° Northeast 189 217 15,600  Level Fort Worth Center
Wed 03:45:53 PM 34.2186 -94.4439 58° Northeast 192 221 15,600  Level Memphis Center
Wed 03:46:53 PM 34.2475 -94.3875 58° Northeast 197 227 15,600  Level Memphis Center
Wed 03:47:53 PM 34.2764 -94.3311 58° Northeast 197 227 15,600  Level Memphis Center
Wed 03:48:53 PM 34.3053 -94.2744 58° Northeast 197 227 15,600  Level Memphis Center
Wed 03:49:53 PM 34.3342 -94.2181 58° Northeast 197 227 15,600  Level Memphis Center
Wed 03:50:53 PM 34.3631 -94.1614 58° Northeast 202 232 15,600  Level Memphis Center
Wed 03:51:53 PM 34.3919 -94.1047 56° Northeast 202 232 15,600  Level Memphis Center
Wed 03:52:53 PM 34.4228 -94.0483 60° Northeast 202 232 15,600  Level Memphis Center
Wed 03:53:53 PM 34.4519 -93.9867 61° Northeast 202 232 15,600  Level Memphis Center
Wed 03:54:53 PM 34.4764 -93.9322 58° Northeast 202 232 15,600  Level Memphis Center
Wed 03:55:53 PM 34.5050 -93.8756 55° Northeast 202 232 15,600  Level Memphis Center
Wed 03:56:53 PM 34.5381 -93.8189 59° Northeast 202 232 15,600  Level Memphis Center
Wed 03:57:53 PM 34.5667 -93.7619 59° Northeast 202 232 15,600  Level Memphis Center
Wed 03:58:53 PM 34.5953 -93.7050 62° Northeast 202 232 15,600  Level Memphis Center
Wed 03:59:53 PM 34.6219 -93.6431 54° Northeast 202 232 15,600 -50 Level Memphis Center
Wed 04:00:53 PM 34.6547 -93.5886 61° Northeast 202 232 15,500  Descending Memphis Center
Wed 04:01:53 PM 34.6814 -93.5292 57° Northeast 202 232 15,600  Climbing Memphis Center
Wed 04:02:53 PM 34.7119 -93.4722 60° Northeast 202 232 15,500  Descending Memphis Center
Wed 04:03:53 PM 34.7406 -93.4125 60° Northeast 202 232 15,600 50 Climbing Memphis Center
Wed 04:04:53 PM 34.7692 -93.3528 57° Northeast 202 232 15,600 -50 Level Memphis Center
Wed 04:05:53 PM 34.7997 -93.2958 60° Northeast 202 232 15,500 -50 Descending Memphis Center
Wed 04:06:53 PM 34.8281 -93.2361 59° Northeast 202 232 15,500 50 Level Memphis Center
Wed 04:07:53 PM 34.8567 -93.1789 60° Northeast 202 232 15,600 50 Climbing Memphis Center
Wed 04:08:53 PM 34.8850 -93.1192 57° Northeast 202 232 15,600  Level Memphis Center
Wed 04:09:53 PM 34.9156 -93.0619 60° Northeast 202 232 15,600  Level Memphis Center
Wed 04:10:53 PM 34.9439 -93.0019 59° Northeast 202 232 15,600  Level Memphis Center
Wed 04:11:53 PM 34.9722 -92.9444 60° Northeast 202 232 15,600 -50 Level Memphis Center
Wed 04:12:53 PM 35.0006 -92.8844 57° Northeast 202 232 15,500  Descending Memphis Center
Wed 04:13:53 PM 35.0308 -92.8272 60° Northeast 202 232 15,600 50 Climbing Memphis Center
Wed 04:14:53 PM 35.0592 -92.7672 59° Northeast 202 232 15,600  Level Memphis Center
Wed 04:15:53 PM 35.0875 -92.7094 59° Northeast 202 232 15,600  Level Memphis Center
Wed 04:16:53 PM 35.1156 -92.6519 59° Northeast 202 232 15,600  Level Memphis Center
Wed 04:17:53 PM 35.1439 -92.5942 59° Northeast 202 232 15,600  Level Memphis Center
Wed 04:18:53 PM 35.1719 -92.5367 59° Northeast 202 232 15,600  Level Memphis Center
Wed 04:19:53 PM 35.1978 -92.4839 60° Northeast 202 232 15,600  Level Memphis Center
Wed 04:20:53 PM 35.2325 -92.4111 59° Northeast 202 232 15,600  Level Memphis Center
Wed 04:21:53 PM 35.2606 -92.3533 58° Northeast 202 232 15,600  Level Memphis Center
Wed 04:22:53 PM 35.2906 -92.2956 60° Northeast 202 232 15,600  Level Memphis Center
Wed 04:23:53 PM 35.3186 -92.2350 59° Northeast 202 232 15,600  Level Memphis Center
Wed 04:24:53 PM 35.3467 -92.1772 60° Northeast 202 232 15,600  Level Memphis Center
Wed 04:25:53 PM 35.3747 -92.1167 59° Northeast 202 232 15,600  Level Memphis Center
Wed 04:26:53 PM 35.4047 -92.0561 59° Northeast 202 232 15,600  Level Memphis Center
Wed 04:27:53 PM 35.4347 -91.9956 61° Northeast 207 238 15,600  Level Memphis Center
Wed 04:28:53 PM 35.4606 -91.9375 57° Northeast 202 232 15,600  Level Memphis Center
Wed 04:29:53 PM 35.4883 -91.8844 60° Northeast 202 232 15,600  Level Memphis Center
Wed 04:30:53 PM 35.5161 -91.8264 62° Northeast 202 232 15,600  Level Memphis Center
Wed 04:31:53 PM 35.5417 -91.7681 60° Northeast 202 232 15,600  Level Memphis Center
Wed 04:32:53 PM 35.5694 -91.7097 58° Northeast 202 232 15,600  Level Memphis Center
Wed 04:33:53 PM 35.5994 -91.6514 60° Northeast 202 232 15,600  Level Memphis Center
Wed 04:34:53 PM 35.6269 -91.5933 60° Northeast 202 232 15,600  Level Memphis Center
Wed 04:35:53 PM 35.6547 -91.5350 60° Northeast 202 232 15,600  Level Memphis Center
Wed 04:36:53 PM 35.6825 -91.4764 60° Northeast 202 232 15,600  Level Memphis Center
Wed 04:37:53 PM 35.7100 -91.4181 64° Northeast 202 232 15,600  Level Memphis Center
Wed 04:38:53 PM 35.7333 -91.3594 63° Northeast 202 232 15,600  Level Memphis Center
Wed 04:39:53 PM 35.7589 -91.2983 60° Northeast 197 227 15,600  Level Memphis Center
Wed 04:40:53 PM 35.7864 -91.2400 58° Northeast 197 227 15,600  Level Memphis Center
Wed 04:41:53 PM 35.8161 -91.1814 62° Northeast 197 227 15,600  Level Memphis Center
Wed 04:42:53 PM 35.8414 -91.1228 60° Northeast 197 227 15,600  Level Memphis Center
Wed 04:43:53 PM 35.8689 -91.0639 58° Northeast 197 227 15,600  Level Memphis Center
Wed 04:44:53 PM 35.8983 -91.0053 55° Northeast 197 227 15,600  Level Memphis Center
Wed 04:45:53 PM 35.9300 -90.9492 58° Northeast 197 227 15,600 -100 Level Memphis Center
Wed 04:46:53 PM 35.9594 -90.8906 65° Northeast 202 232 15,400  Descending Memphis Center
Wed 04:47:53 PM 35.9825 -90.8289 57° Northeast 202 232 15,600 100 Climbing Memphis Center
Wed 04:48:53 PM 36.0119 -90.7728 63° Northeast 202 232 15,600  Level Memphis Center
Wed 04:49:53 PM 36.0372 -90.7111 60° Northeast 202 232 15,600  Level Memphis Center
Wed 04:50:53 PM 36.0644 -90.6522 59° Northeast 202 232 15,600  Level Memphis Center
Wed 04:51:53 PM 36.0917 -90.5958 61° Northeast 197 227 15,600  Level Memphis Center
Wed 04:52:53 PM 36.1189 -90.5342 58° Northeast 197 227 15,600  Level Memphis Center
Wed 04:53:53 PM 36.1481 -90.4753 60° Northeast 202 232 15,600  Level Memphis Center
Wed 04:54:53 PM 36.1753 -90.4161 60° Northeast 202 232 15,600  Level Memphis Center
Wed 04:55:53 PM 36.2025 -90.3569 61° Northeast 202 232 15,600  Level Memphis Center
Wed 04:56:53 PM 36.2294 -90.2978 62° Northeast 202 232 15,600  Level Memphis Center
Wed 04:57:53 PM 36.2544 -90.2386 59° Northeast 202 232 15,600  Level Memphis Center
Wed 04:58:53 PM 36.2814 -90.1819 62° Northeast 202 232 15,600  Level Memphis Center
Wed 04:59:53 PM 36.3083 -90.1200 60° Northeast 202 232 15,600 50 Level Memphis Center
Wed 05:00:53 PM 36.3356 -90.0606 59° Northeast 202 232 15,700 50 Climbing Memphis Center
Wed 05:01:53 PM 36.3644 -90.0014 61° Northeast 202 232 15,700  Level Memphis Center
Wed 05:02:53 PM 36.3914 -89.9419 62° Northeast 202 232 15,700  Level Memphis Center
Wed 05:03:53 PM 36.4161 -89.8850 61° Northeast 197 227 15,700  Level Memphis Center
Wed 05:04:53 PM 36.4431 -89.8256 60° Northeast 197 227 15,700  Level Memphis Center
Wed 05:05:53 PM 36.4719 -89.7633 61° Northeast 197 227 15,700  Level Memphis Center
Wed 05:06:53 PM 36.5008 -89.6986 60° Northeast 197 227 15,700  Level Memphis Center
Wed 05:07:53 PM 36.5275 -89.6417 60° Northeast 197 227 15,700  Level Memphis Center
Wed 05:08:53 PM 36.5564 -89.5794 63° Northeast 197 227 15,700  Level Memphis Center
Wed 05:09:53 PM 36.5811 -89.5197 58° Northeast 197 227 15,700  Level Memphis Center
Wed 05:10:53 PM 36.6097 -89.4625 62° Northeast 197 227 15,700  Level Memphis Center
Wed 05:11:53 PM 36.6364 -89.4003 61° Northeast 197 227 15,700  Level Memphis Center
Wed 05:12:53 PM 36.6631 -89.3403 60° Northeast 197 227 15,700  Level Memphis Center
Wed 05:13:53 PM 36.6917 -89.2778 63° Northeast 197 227 15,700  Level Memphis Center
Wed 05:14:53 PM 36.7161 -89.2181 61° Northeast 197 227 15,700  Level Memphis Center
Wed 05:15:53 PM 36.7428 -89.1581 60° Northeast 197 227 15,700  Level Memphis Center
Wed 05:16:53 PM 36.7711 -89.0956 61° Northeast 203 234 15,700  Level Memphis Center
Wed 05:17:53 PM 36.7978 -89.0356 61° Northeast 203 234 15,700  Level Memphis Center
Wed 05:18:53 PM 36.8242 -88.9756 62° Northeast 203 234 15,700  Level Memphis Center
Wed 05:19:53 PM 36.8506 -88.9128 60° Northeast 203 234 15,700  Level Memphis Center
Wed 05:20:53 PM 36.8769 -88.8553 61° Northeast 203 234 15,700  Level Memphis Center
Wed 05:21:53 PM 36.9053 -88.7925 62° Northeast 203 234 15,700  Level Memphis Center
Wed 05:22:53 PM 36.9317 -88.7297 62° Northeast 203 234 15,700  Level Memphis Center
Wed 05:23:53 PM 36.9578 -88.6694 61° Northeast 203 234 15,700  Level Memphis Center
Wed 05:24:53 PM 36.9822 -88.6144 60° Northeast 203 234 15,700  Level Memphis Center
Wed 05:25:53 PM 37.0083 -88.5567 63° Northeast 203 234 15,700  Level Memphis Center
Wed 05:26:53 PM 37.0344 -88.4936 61° Northeast 203 234 15,700  Level Memphis Center
Wed 05:27:53 PM 37.0606 -88.4333 61° Northeast 203 234 15,700  Level Memphis Center
Wed 05:28:53 PM 37.0889 -88.3700 61° Northeast 203 234 15,700  Level Memphis Center
Wed 05:29:53 PM 37.1150 -88.3097 62° Northeast 203 234 15,700  Level Memphis Center
Wed 05:30:53 PM 37.1411 -88.2492 61° Northeast 203 234 15,700 -200 Level Memphis Center
Wed 05:31:53 PM 37.1692 -88.1858 62° Northeast 203 234 15,300 -300 Descending Memphis Center
Wed 05:32:53 PM 37.1972 -88.1200 65° Northeast 203 234 15,100 -300 Descending Memphis Center
Wed 05:33:53 PM 37.2250 -88.0439 62° Northeast 216 249 14,700 -350 Descending Memphis Center
Wed 05:34:53 PM 37.2547 -87.9725 62° Northeast 216 249 14,400 -333 Descending Memphis Center
Wed 05:36:35 PM 37.3006 -87.8653 64° Northeast 217 250 13,800 -271 Descending Indianapolis Center
Wed 05:37:28 PM 37.3222 -87.8089 62° Northeast 220 253 13,700 -250 Descending Memphis Center
Wed 05:38:35 PM 37.3542 -87.7322 64° Northeast 215 247 13,300 -344 Descending Memphis Center
Wed 05:39:30 PM 37.3778 -87.6714 58° Northeast 215 247 13,000 -313 Descending Memphis Center
Wed 05:40:30 PM 37.4097 -87.6075 64° Northeast 212 244 12,700 -248 Descending Memphis Center
Wed 05:41:31 PM 37.4333 -87.5467 61° Northeast 208 239 12,500 -246 Descending Memphis Center
Wed 05:42:32 PM 37.4631 -87.4778 63° Northeast 210 242 12,200 -331 Descending Memphis Center
Wed 05:43:38 PM 37.4925 -87.4033 60° Northeast 211 243 11,800 -331 Descending Memphis Center
Wed 05:44:39 PM 37.5222 -87.3394 64° Northeast 212 244 11,500 -298 Descending Memphis Center
Wed 05:45:39 PM 37.5478 -87.2731 62° Northeast 210 242 11,200 -313 Descending Memphis Center
Wed 05:46:34 PM 37.5711 -87.2172 62° Northeast 208 239 10,900 -310 Descending Memphis Center
Wed 05:47:35 PM 37.5986 -87.1508 62° Northeast 202 232 10,600 -295 Descending Memphis Center

Login

Don't have an account? Register now (free) for customized features, flight alerts, and more!